Time;durP1;ratioP1;P1;durP2;ratioP2;P2;SDS_P1;SDS_P2;PMS_P1;PMS_P2;Temp;Humidity;BMP_temperature;BMP_pressure;BME280_temperature;BME280_humidity;BME280_pressure;Samples;Min_cycle;Max_cycle;Signal;HPM_P1;HPM_P2
2023/01/13 00:00:46;;;;;;;27.70;6.97;;;9.60;99.90;;;8.77;100.00;101240.47;4170127;28;20478;-77
2023/01/13 00:02:47;;;;;;;27.00;4.43;;;9.60;99.90;;;8.88;100.00;101245.63;4171089;28;20112;-77
2023/01/13 00:04:48;;;;;;;26.73;4.72;;;9.70;99.90;;;8.93;100.00;101257.56;4169942;28;20037;-77
2023/01/13 00:06:49;;;;;;;32.25;5.50;;;9.70;99.90;;;9.01;100.00;101253.31;4171234;28;20057;-77
2023/01/13 00:08:50;;;;;;;23.75;3.88;;;9.70;99.90;;;9.00;100.00;101250.78;4161425;28;20034;-77
2023/01/13 00:10:51;;;;;;;28.52;4.07;;;9.80;99.90;;;8.98;100.00;101248.31;4153499;28;20501;-77
2023/01/13 00:12:52;;;;;;;32.05;4.03;;;9.80;99.90;;;9.14;100.00;101253.88;4153429;28;20026;-77
2023/01/13 00:14:53;;;;;;;34.67;5.03;;;9.90;99.90;;;9.29;100.00;101251.69;4154560;28;20030;-78
2023/01/13 00:16:54;;;;;;;25.92;4.30;;;10.00;99.90;;;9.28;100.00;101244.78;4160898;28;20045;-77
2023/01/13 00:18:55;;;;;;;28.63;4.47;;;10.00;99.90;;;9.34;100.00;101233.72;4159135;28;20066;-77
2023/01/13 00:21:07;;;;;;;29.95;4.70;;;10.10;99.90;;;9.33;100.00;101237.31;4153373;28;20080;-77
2023/01/13 00:23:08;;;;;;;25.88;5.00;;;10.10;99.90;;;9.30;100.00;101235.78;4137545;28;20030;-77
2023/01/13 00:25:09;;;;;;;35.22;6.57;;;10.10;99.90;;;9.28;100.00;101232.47;4153449;28;20512;-77
2023/01/13 00:27:10;;;;;;;31.80;5.93;;;10.10;99.90;;;9.38;100.00;101224.56;4153289;28;20034;-77
2023/01/13 00:29:11;;;;;;;29.50;3.97;;;10.10;99.90;;;9.46;100.00;101230.00;4170514;28;20029;-78
2023/01/13 00:31:19;;;;;;;27.50;4.30;;;10.20;99.90;;;9.59;100.00;101220.00;4169286;28;20036;-77
2023/01/13 00:33:20;;;;;;;26.35;5.03;;;10.30;99.90;;;9.53;100.00;101210.03;4169752;28;20429;-77
2023/01/13 00:35:21;;;;;;;26.10;5.28;;;10.30;99.90;;;9.60;100.00;101208.50;4169551;28;20033;-77
2023/01/13 00:37:22;;;;;;;22.27;3.55;;;10.30;99.90;;;9.63;100.00;101202.97;4167105;28;20017;-77
2023/01/13 00:39:23;;;;;;;25.27;3.80;;;10.40;99.90;;;9.68;100.00;101199.91;4153085;28;20108;-77
2023/01/13 00:41:26;;;;;;;25.88;3.60;;;10.40;99.90;;;9.71;100.00;101205.72;4154423;28;20029;-77
2023/01/13 00:43:28;;;;;;;22.50;5.28;;;10.40;99.90;;;9.83;100.00;101190.63;4136656;28;20077;-77
2023/01/13 00:45:29;;;;;;;24.85;4.00;;;10.50;99.90;;;9.83;100.00;101183.53;4154141;28;20034;-78
2023/01/13 00:47:30;;;;;;;26.08;4.68;;;10.60;99.90;;;9.93;100.00;101194.06;4161382;28;20075;-77
2023/01/13 00:49:31;;;;;;;15.23;3.05;;;10.60;99.90;;;10.07;100.00;101184.88;4170622;28;20057;-78
2023/01/13 00:51:32;;;;;;;22.38;4.28;;;10.70;99.90;;;9.93;100.00;101179.09;4170387;28;20029;-77
2023/01/13 00:53:37;;;;;;;21.85;3.28;;;10.70;99.90;;;9.89;100.00;101172.44;4169347;28;20026;-77
2023/01/13 00:55:38;;;;;;;21.67;4.03;;;10.70;99.90;;;9.87;100.00;101163.84;4169354;28;20452;-77
2023/01/13 00:57:39;;;;;;;24.65;3.13;;;10.70;99.90;;;9.85;100.00;101173.72;4159997;28;20053;-77
2023/01/13 00:59:40;;;;;;;18.17;4.47;;;10.70;99.90;;;9.91;100.00;101170.53;4152276;28;20094;-77
2023/01/13 01:01:41;;;;;;;25.08;4.93;;;10.70;99.90;;;9.95;100.00;101177.16;4152587;28;20038;-78
2023/01/13 01:03:42;;;;;;;21.17;4.28;;;10.70;99.90;;;10.04;100.00;101164.91;4154135;28;20531;-78
2023/01/13 01:05:43;;;;;;;20.13;3.15;;;10.80;99.90;;;9.96;100.00;101168.28;4152768;28;20032;-78
2023/01/13 01:07:44;;;;;;;11.13;2.92;;;10.80;99.90;;;10.07;100.00;101174.34;4153841;28;20030;-78
2023/01/13 01:09:45;;;;;;;23.60;3.63;;;10.90;99.90;;;10.03;100.00;101161.44;4153992;28;20489;-77
2023/01/13 01:11:46;;;;;;;13.10;2.95;;;10.90;99.90;;;10.11;100.00;101159.91;4153945;28;20053;-77
2023/01/13 01:13:50;;;;;;;16.90;2.97;;;10.80;99.90;;;10.11;100.00;101163.38;4152730;28;20030;-78
2023/01/13 01:15:51;;;;;;;14.25;2.78;;;10.90;99.90;;;9.91;100.00;101153.88;4152223;28;20463;-77
2023/01/13 01:17:52;;;;;;;16.13;3.60;;;10.80;99.90;;;9.88;100.00;101157.63;4159482;28;20041;-78
2023/01/13 01:19:53;;;;;;;22.48;3.25;;;10.80;99.90;;;9.86;100.00;101156.06;4170169;28;20025;-78
2023/01/13 01:21:54;;;;;;;18.33;3.05;;;10.70;99.90;;;9.83;100.00;101151.94;4168904;28;20401;-78
2023/01/13 01:24:02;;;;;;;20.17;4.63;;;10.70;99.90;;;9.75;100.00;101158.88;4169881;28;20025;-78
2023/01/13 01:26:07;;;;;;;23.77;3.58;;;10.60;99.90;;;9.68;100.00;101163.03;4146390;28;20137;-77
2023/01/13 01:28:08;;;;;;;13.27;3.63;;;10.50;99.90;;;9.63;100.00;101160.84;4160503;28;20032;-77
2023/01/13 01:30:10;;;;;;;20.80;3.67;;;10.50;99.90;;;9.52;100.00;101173.31;4169750;28;20030;-77
2023/01/13 01:32:11;;;;;;;19.13;3.30;;;10.40;99.90;;;9.55;100.00;101176.50;4169829;28;20052;-77
2023/01/13 01:34:12;;;;;;;17.42;2.90;;;10.40;99.90;;;9.50;100.00;101185.78;4170141;28;20026;-77
2023/01/13 01:36:17;;;;;;;18.20;4.03;;;10.40;99.90;;;9.45;100.00;101171.22;4169699;28;20105;-77
2023/01/13 01:38:20;;;;;;;18.58;4.20;;;10.30;99.90;;;9.51;100.00;101187.44;4157048;28;20081;-78
2023/01/13 01:40:20;;;;;;;26.60;5.07;;;10.30;99.90;;;9.46;100.00;101179.97;4153283;28;20030;-78
2023/01/13 01:44:41;;;;;;;20.30;3.50;;;10.30;99.90;;;9.51;100.00;101187.44;4152330;28;20101;-77
2023/01/13 01:46:43;;;;;;;20.73;3.20;;;10.30;99.90;;;9.33;100.00;101185.50;4154376;28;20034;-77
2023/01/13 01:48:44;;;;;;;16.98;3.40;;;10.20;99.90;;;9.22;100.00;101190.06;4168591;28;20428;-77
2023/01/13 01:50:46;;;;;;;20.48;3.45;;;10.10;99.90;;;9.04;100.00;101178.53;4168462;28;20480;-78
2023/01/13 01:53:01;;;;;;;20.52;3.25;;;10.10;99.90;;;9.01;100.00;101187.53;4168428;28;20093;-78
2023/01/13 01:55:12;;;;;;;17.98;3.35;;;9.90;99.90;;;8.86;100.00;101188.88;4168309;28;20025;-77
2023/01/13 01:57:20;;;;;;;18.98;3.83;;;9.80;99.90;;;8.79;100.00;101193.00;4162442;28;20068;-78
2023/01/13 01:59:22;;;;;;;18.00;3.25;;;9.70;99.90;;;8.77;100.00;101197.56;4153204;28;20026;-77
2023/01/13 02:01:23;;;;;;;21.88;3.60;;;9.60;99.90;;;8.69;100.00;101194.78;4152798;28;20460;-77
2023/01/13 02:03:24;;;;;;;15.98;2.92;;;9.60;99.90;;;8.67;100.00;101194.03;4153222;28;20030;-78
2023/01/13 02:05:25;;;;;;;21.35;4.45;;;9.50;99.90;;;8.66;100.00;101201.09;4160947;28;20033;-78
2023/01/13 02:07:30;;;;;;;23.13;3.28;;;9.50;99.90;;;8.61;100.00;101203.31;4157265;28;20048;-78
2023/01/13 02:09:34;;;;;;;17.60;3.10;;;9.50;99.90;;;8.57;100.00;101212.41;4151707;28;20072;-78
2023/01/13 02:13:55;;;;;;;24.67;3.92;;;9.40;99.90;;;8.51;100.00;101210.31;4152379;28;20036;-77
2023/01/13 02:16:13;;;;;;;16.58;3.60;;;9.40;99.90;;;8.52;100.00;101225.13;4151497;28;20022;-78
2023/01/13 02:18:36;;;;;;;20.98;4.28;;;9.40;99.90;;;8.42;100.00;101229.53;4153182;28;20041;-77
2023/01/13 02:21:21;;;;;;;18.95;3.63;;;9.30;99.90;;;8.31;100.00;101226.94;4153147;28;20030;-78
2023/01/13 02:26:32;;;;;;;21.73;4.45;;;9.10;99.90;;;8.15;100.00;101247.56;4141469;28;20096;-77
2023/01/13 02:34:08;;;;;;;33.15;5.38;;;8.90;99.90;;;7.98;100.00;101240.25;4168161;28;20441;-78
2023/01/13 02:36:42;;;;;;;29.75;3.88;;;8.90;99.90;;;8.01;100.00;101245.25;4168890;28;20053;-78
2023/01/13 02:38:59;;;;;;;17.88;3.70;;;8.80;99.90;;;7.94;100.00;101250.19;4154108;28;20500;-78
2023/01/13 02:46:30;;;;;;;23.65;5.10;;;8.70;99.90;;;7.78;100.00;101244.53;4151445;28;20033;-78
2023/01/13 02:48:32;;;;;;;26.15;5.25;;;8.60;99.90;;;7.79;100.00;101257.50;4151268;28;20061;-78
2023/01/13 02:50:43;;;;;;;24.98;4.60;;;8.60;99.90;;;7.73;100.00;101247.53;4152573;28;20117;-78
2023/01/13 02:52:53;;;;;;;23.65;6.45;;;8.60;99.90;;;7.74;100.00;101259.69;4151450;28;20476;-78
2023/01/13 02:55:01;;;;;;;32.15;4.38;;;8.50;99.90;;;7.69;100.00;101256.63;4152291;28;20433;-77
2023/01/13 02:57:07;;;;;;;21.77;4.32;;;8.50;99.90;;;7.67;100.00;101253.28;4156332;28;20030;-78
2023/01/13 02:59:09;;;;;;;25.58;3.78;;;8.50;99.90;;;7.72;100.00;101260.78;4151345;28;20022;-78
2023/01/13 03:01:10;;;;;;;33.13;4.75;;;8.60;99.90;;;7.87;100.00;101267.41;4150954;28;20030;-78
2023/01/13 03:03:11;;;;;;;24.48;4.57;;;8.70;99.90;;;7.94;100.00;101258.06;4152395;28;20033;-78
2023/01/13 03:05:16;;;;;;;27.45;4.05;;;8.80;99.90;;;8.04;100.00;101258.13;4151267;28;20374;-77
2023/01/13 03:07:44;;;;;;;33.47;4.97;;;8.90;99.90;;;8.17;100.00;101264.88;4160893;28;20071;-78
2023/01/13 03:10:15;;;;;;;23.02;5.05;;;9.00;99.90;;;8.24;100.00;101259.94;4167357;28;20084;-78
2023/01/13 03:12:49;;;;;;;33.33;5.15;;;9.10;99.90;;;8.36;100.00;101264.22;4168703;28;20527;-78
2023/01/13 03:15:12;;;;;;;21.98;4.57;;;9.20;99.90;;;8.46;100.00;101259.81;4161759;28;20466;-77
2023/01/13 03:17:40;;;;;;;28.23;4.20;;;9.30;99.90;;;8.53;100.00;101252.25;4152567;28;20516;-78
2023/01/13 03:20:15;;;;;;;21.73;4.00;;;9.40;99.90;;;8.59;100.00;101246.47;4151028;28;20065;-78
2023/01/13 03:22:22;;;;;;;23.02;4.43;;;9.50;99.90;;;8.66;100.00;101243.19;4151332;28;20064;-77
2023/01/13 03:24:33;;;;;;;27.73;4.65;;;9.50;99.90;;;8.67;100.00;101236.97;4153768;28;20520;-77
2023/01/13 03:26:52;;;;;;;35.70;4.90;;;9.50;99.90;;;8.81;100.00;101241.84;4162901;28;20037;-78
2023/01/13 03:29:15;;;;;;;18.15;4.30;;;9.60;99.90;;;8.80;100.00;101239.38;4157789;28;20057;-77
2023/01/13 03:31:28;;;;;;;33.33;6.82;;;9.70;99.90;;;8.88;100.00;101244.81;4154139;28;20037;-78
2023/01/13 03:33:55;;;;;;;22.40;4.63;;;9.70;99.90;;;8.87;100.00;101233.44;4154456;28;20496;-78
2023/01/13 03:36:03;;;;;;;21.17;5.43;;;9.70;99.90;;;8.82;100.00;101247.97;4155478;28;20022;-77
2023/01/13 03:38:32;;;;;;;26.60;6.78;;;9.70;99.90;;;8.75;100.00;101252.09;4147374;28;20026;-77
2023/01/13 03:40:42;;;;;;;21.50;4.35;;;9.60;99.90;;;8.59;100.00;101260.47;4166914;28;20037;-78
2023/01/13 03:45:26;;;;;;;36.75;4.97;;;9.50;99.90;;;8.59;100.00;101255.22;4126350;28;20053;-77
2023/01/13 03:47:44;;;;;;;25.42;5.25;;;9.50;99.90;;;8.75;100.00;101250.28;4161099;28;20099;-78
2023/01/13 03:49:59;;;;;;;24.45;6.32;;;9.60;99.90;;;8.90;100.00;101243.69;4153940;28;20030;-78
2023/01/13 03:52:06;;;;;;;31.25;5.43;;;9.70;99.90;;;8.96;100.00;101242.31;4138278;28;20421;-77
2023/01/13 03:54:11;;;;;;;20.70;5.28;;;9.70;99.90;;;9.06;100.00;101245.84;4153759;28;20033;-78
2023/01/13 03:56:26;;;;;;;33.13;5.50;;;9.80;99.90;;;9.14;100.00;101245.19;4156684;28;20570;-78
2023/01/13 03:58:38;;;;;;;29.65;4.28;;;9.90;99.90;;;9.22;100.00;101250.59;4141834;28;20034;-78
2023/01/13 04:01:00;;;;;;;27.65;5.13;;;10.00;99.90;;;9.22;100.00;101242.69;4137696;28;20026;-78
2023/01/13 04:03:09;;;;;;;28.10;4.38;;;10.10;99.90;;;9.24;100.00;101254.75;4153694;28;20036;-78
2023/01/13 04:05:11;;;;;;;25.98;4.75;;;10.10;99.90;;;9.28;100.00;101260.59;4153941;28;20611;-78
2023/01/13 04:07:31;;;;;;;28.15;4.82;;;10.10;99.90;;;9.34;100.00;101265.31;4163081;28;20449;-78
2023/01/13 04:09:33;;;;;;;20.92;4.63;;;10.20;99.90;;;9.31;100.00;101258.53;4169986;28;20026;-77
2023/01/13 04:11:56;;;;;;;35.95;5.32;;;10.20;99.90;;;9.32;100.00;101273.34;4170150;28;20030;-78
2023/01/13 04:14:00;;;;;;;26.48;4.53;;;10.20;99.90;;;9.23;100.00;101260.13;4169973;28;20136;-77
2023/01/13 04:16:03;;;;;;;;;;;10.20;99.90;;;9.23;100.00;101263.59;4169261;28;20582;-78
2023/01/13 04:18:19;;;;;;;31.98;6.85;;;10.20;99.90;;;9.28;100.00;101269.31;4180747;28;20277;-77
2023/01/13 04:20:20;;;;;;;24.25;4.53;;;10.20;99.90;;;9.19;100.00;101261.41;4153635;28;20032;-78
2023/01/13 04:22:21;;;;;;;32.08;6.55;;;10.10;99.90;;;9.11;100.00;101264.69;4153353;28;20026;-78
2023/01/13 04:24:22;;;;;;;28.10;4.68;;;10.00;99.90;;;9.03;100.00;101271.59;4157454;28;20034;-77
2023/01/13 04:26:23;;;;;;;31.77;5.82;;;10.00;99.90;;;9.10;100.00;101280.63;4150059;28;20030;-77
2023/01/13 04:28:25;;;;;;;29.63;5.53;;;10.00;99.90;;;9.04;100.00;101283.78;4175804;28;20430;-78
2023/01/13 04:30:26;;;;;;;28.88;5.40;;;10.00;99.90;;;9.07;100.00;101283.53;4154107;28;20034;-77
2023/01/13 04:32:27;;;;;;;24.17;4.55;;;10.00;99.90;;;9.05;100.00;101285.47;4154558;28;20068;-77
2023/01/13 04:34:28;;;;;;;20.73;4.43;;;10.00;99.90;;;9.07;100.00;101288.78;4154115;28;20398;-77
2023/01/13 04:36:29;;;;;;;29.05;4.30;;;9.90;99.90;;;9.09;100.00;101282.41;4153981;28;20022;-77
2023/01/13 04:38:30;;;;;;;29.08;4.90;;;10.00;99.90;;;9.06;100.00;101295.84;4167637;28;20060;-77
2023/01/13 04:40:30;;;;;;;26.20;4.95;;;10.00;99.90;;;9.11;100.00;101304.16;4170861;28;20025;-77
2023/01/13 04:42:31;;;;;;;34.30;5.85;;;10.00;99.90;;;9.19;100.00;101299.09;4169787;28;20038;-77
2023/01/13 04:44:34;;;;;;;29.73;5.47;;;10.00;99.90;;;9.08;100.00;101295.72;4170540;28;20489;-78
2023/01/13 04:46:35;;;;;;;23.73;4.03;;;10.00;99.90;;;9.09;100.00;101313.16;4169361;28;20028;-77
2023/01/13 04:48:36;;;;;;;21.40;3.53;;;10.00;99.90;;;9.04;100.00;101318.84;4154482;28;20096;-77
2023/01/13 04:50:37;;;;;;;25.73;4.90;;;9.90;99.90;;;8.95;100.00;101310.88;4154310;28;20037;-77
2023/01/13 04:52:38;;;;;;;28.50;4.65;;;9.90;99.90;;;8.97;100.00;101317.69;4153099;28;20036;-77
2023/01/13 04:54:39;;;;;;;21.20;4.72;;;9.80;99.90;;;9.07;100.00;101328.25;4153002;28;20030;-77
2023/01/13 04:56:40;;;;;;;19.80;4.38;;;9.90;99.90;;;9.04;100.00;101326.72;4155995;28;20049;-77
2023/01/13 04:58:41;;;;;;;22.02;4.63;;;9.90;99.90;;;8.85;100.00;101322.19;4169377;28;20516;-77
2023/01/13 05:00:42;;;;;;;17.90;5.05;;;9.80;99.90;;;8.77;100.00;101334.34;4168908;28;20034;-78
2023/01/13 05:02:43;;;;;;;23.92;6.10;;;9.70;99.90;;;8.60;100.00;101338.38;4169204;28;20033;-77
2023/01/13 05:04:46;;;;;;;24.65;5.40;;;9.60;99.90;;;8.72;100.00;101344.41;4169069;28;20579;-78
2023/01/13 05:06:46;;;;;;;28.10;4.00;;;9.50;99.90;;;8.68;100.00;101345.63;4164043;28;20029;-78
2023/01/13 05:08:49;;;;;;;19.05;4.18;;;9.50;99.90;;;8.66;100.00;101358.91;4152782;28;20077;-77
2023/01/13 05:10:50;;;;;;;28.80;3.63;;;9.50;99.90;;;8.56;100.00;101358.00;4152577;28;20030;-77
2023/01/13 05:17:35;;;;;;;29.48;4.53;;;9.40;99.90;;;8.44;100.00;101342.41;4165207;28;20052;-77
2023/01/13 05:19:39;;;;;;;21.95;3.47;;;9.40;99.90;;;8.37;100.00;101342.09;4160476;28;20033;-77
2023/01/13 05:26:21;;;;;;;21.73;4.32;;;9.20;99.90;;;8.47;100.00;101364.03;4156088;28;20041;-77
2023/01/13 05:28:22;;;;;;;21.35;4.15;;;9.20;99.90;;;8.30;100.00;101356.72;4143357;28;20129;-78
2023/01/13 05:30:30;;;;;;;21.00;4.32;;;9.20;99.90;;;8.32;100.00;101379.28;4152147;28;20030;-77
2023/01/13 05:32:30;;;;;;;23.83;4.35;;;9.20;99.90;;;8.27;100.00;101381.44;4153650;28;20118;-77
2023/01/13 05:34:32;;;;;;;21.45;3.50;;;9.10;99.90;;;8.16;100.00;101376.19;4159963;28;20040;-77
2023/01/13 05:36:33;;;;;;;22.23;5.03;;;9.10;99.90;;;8.19;100.00;101385.63;4168723;28;20028;-77
2023/01/13 05:38:33;;;;;;;19.75;4.55;;;9.00;99.90;;;8.16;100.00;101393.75;4157122;28;20051;-78
2023/01/13 05:43:24;;;;;;;20.73;4.03;;;9.00;99.90;;;8.02;100.00;101381.75;4152621;28;20416;-78
2023/01/13 05:45:25;;;;;;;17.27;4.35;;;8.90;99.90;;;7.95;100.00;101379.72;4152267;28;20112;-77
2023/01/13 05:47:26;;;;;;;25.42;3.47;;;8.90;99.90;;;7.93;100.00;101379.03;4159304;28;20032;-78
2023/01/13 05:49:27;;;;;;;23.60;4.60;;;8.90;99.90;;;7.82;100.00;101379.06;4169876;28;20029;-77
2023/01/13 05:51:28;;;;;;;18.75;3.78;;;8.70;99.90;;;7.78;100.00;101386.34;4168725;28;20101;-78
2023/01/13 05:53:29;;;;;;;21.35;3.88;;;8.70;99.90;;;7.72;100.00;101376.31;4169674;28;20133;-77
2023/01/13 05:55:30;;;;;;;22.42;3.28;;;8.60;99.90;;;7.68;100.00;101383.59;4168581;28;20031;-78
2023/01/13 05:57:31;;;;;;;21.10;3.92;;;8.60;99.90;;;7.64;100.00;101376.94;4159452;28;20113;-77
2023/01/13 05:59:33;;;;;;;21.73;4.30;;;8.60;99.90;;;7.65;100.00;101375.97;4152978;28;20046;-78
2023/01/13 06:01:35;;;;;;;16.88;3.15;;;8.50;99.90;;;7.58;100.00;101394.97;4153040;28;20028;-78
2023/01/13 06:03:37;;;;;;;21.60;3.75;;;8.50;99.90;;;7.51;100.00;101391.16;4153597;28;20038;-77
2023/01/13 06:05:38;;;;;;;25.92;3.38;;;8.40;99.90;;;7.46;100.00;101402.03;4152118;28;20026;-78
2023/01/13 06:07:39;;;;;;;18.98;4.00;;;8.40;99.90;;;7.47;100.00;101410.69;4147199;28;20030;-78
2023/01/13 06:09:40;;;;;;;24.40;4.85;;;8.30;99.90;;;7.45;100.00;101412.63;4169226;28;20393;-77
2023/01/13 06:11:40;;;;;;;27.15;4.60;;;8.30;99.90;;;7.43;100.00;101418.00;4169585;28;20037;-78
2023/01/13 06:13:41;;;;;;;24.02;4.45;;;8.30;99.90;;;7.37;100.00;101407.97;4169341;28;20477;-77
2023/01/13 06:15:42;;;;;;;19.63;4.78;;;8.20;99.90;;;7.38;100.00;101407.00;4169262;28;20083;-77
2023/01/13 06:17:43;;;;;;;27.33;4.00;;;8.30;99.90;;;7.34;100.00;101410.84;4163216;28;20048;-77
2023/01/13 06:19:44;;;;;;;17.17;3.28;;;8.20;99.90;;;7.31;100.00;101397.97;4151784;28;20109;-77
2023/01/13 06:21:45;;;;;;;16.42;4.78;;;8.20;99.90;;;7.25;100.00;101411.56;4151733;28;20034;-78
2023/01/13 06:23:46;;;;;;;25.55;4.68;;;8.10;99.90;;;7.22;100.00;101412.63;4152807;28;20037;-77
2023/01/13 06:25:52;;;;;;;23.00;4.70;;;8.10;99.90;;;7.18;100.00;101408.56;4166055;28;20041;-78
2023/01/13 06:27:55;;;;;;;23.58;4.85;;;8.10;99.90;;;7.19;100.00;101409.41;4160912;28;20030;-78
2023/01/13 06:29:56;;;;;;;26.55;5.28;;;8.00;99.90;;;7.16;100.00;101417.50;4151391;28;20076;-77
2023/01/13 06:31:58;;;;;;;26.17;5.57;;;8.00;99.90;;;7.19;100.00;101420.75;4152670;28;20026;-77
2023/01/13 06:34:10;;;;;;;27.38;5.40;;;8.00;99.90;;;7.15;100.00;101426.31;4152715;28;21470;-77
2023/01/13 06:36:28;;;;;;;15.25;3.83;;;8.00;99.90;;;7.18;100.00;101431.34;4151496;28;20105;-77
2023/01/13 06:38:36;;;;;;;20.60;4.63;;;8.00;99.90;;;7.12;100.00;101430.03;4154639;28;20030;-78
2023/01/13 06:40:37;;;;;;;23.17;5.45;;;8.00;99.90;;;7.15;100.00;101431.56;4152674;28;20022;-77
2023/01/13 06:44:58;;;;;;;24.38;4.00;;;8.00;99.90;;;7.05;100.00;101433.22;4151269;28;20100;-77
2023/01/13 06:46:58;;;;;;;25.45;4.30;;;8.00;99.90;;;7.12;100.00;101439.66;4153935;28;20026;-77
2023/01/13 06:48:59;;;;;;;23.10;4.45;;;8.00;99.90;;;7.03;100.00;101437.75;4151404;28;20436;-77
2023/01/13 06:51:02;;;;;;;22.17;4.95;;;8.00;99.90;;;7.00;100.00;101437.97;4152465;28;20034;-78
2023/01/13 06:53:03;;;;;;;33.35;5.80;;;7.90;99.90;;;6.97;100.00;101435.59;4151173;28;20026;-77
2023/01/13 06:55:05;;;;;;;27.67;5.78;;;7.90;99.90;;;7.06;100.00;101446.22;4152659;28;20034;-78
2023/01/13 06:57:06;;;;;;;30.05;4.50;;;7.90;99.90;;;7.17;100.00;101458.50;4150960;28;20088;-78
2023/01/13 06:59:07;;;;;;;22.02;4.25;;;8.00;99.90;;;7.05;100.00;101448.94;4152043;28;20021;-78
2023/01/13 07:01:07;;;;;;;27.98;3.95;;;8.00;99.90;;;7.02;100.00;101457.03;4152208;28;20022;-77
2023/01/13 07:03:13;;;;;;;23.75;4.65;;;7.90;99.90;;;6.99;100.00;101465.19;4139316;28;20030;-77
2023/01/13 07:05:15;;;;;;;27.77;3.70;;;7.90;99.90;;;6.96;100.00;101468.84;4152562;28;20153;-78
2023/01/13 07:07:16;;;;;;;23.90;4.43;;;7.80;99.90;;;6.93;100.00;101465.63;4156090;28;20041;-77
2023/01/13 07:09:17;;;;;;;27.75;4.50;;;7.80;99.90;;;6.88;100.00;101463.34;4152145;28;20409;-77
2023/01/13 07:11:18;;;;;;;21.80;3.47;;;7.80;99.90;;;6.89;100.00;101457.16;4151082;28;20034;-77
2023/01/13 07:15:39;;;;;;;26.83;4.20;;;7.70;99.90;;;6.83;100.00;101475.97;4151846;28;20041;-77
2023/01/13 07:17:39;;;;;;;27.90;4.40;;;7.70;99.90;;;6.82;100.00;101483.94;4151281;28;20046;-78
2023/01/13 07:19:40;;;;;;;21.17;4.55;;;7.70;99.90;;;6.78;100.00;101482.50;4152344;28;20022;-78
2023/01/13 07:21:42;;;;;;;26.17;3.67;;;7.70;99.90;;;6.80;100.00;101493.72;4151346;28;20040;-77
2023/01/13 07:23:43;;;;;;;22.60;4.97;;;7.70;99.90;;;6.86;100.00;101496.72;4152348;28;20030;-77
2023/01/13 07:25:44;;;;;;;28.15;4.32;;;7.70;99.90;;;6.84;100.00;101503.03;4152492;28;20026;-78
2023/01/13 07:27:45;;;;;;;30.70;4.65;;;7.70;99.90;;;6.82;100.00;101507.53;4150976;28;20026;-77
2023/01/13 07:29:46;;;;;;;21.17;4.90;;;7.70;99.90;;;6.78;100.00;101509.53;4150197;28;20022;-78
2023/01/13 07:31:47;;;;;;;25.42;5.60;;;7.70;99.90;;;6.76;100.00;101497.50;4150870;28;20443;-77
2023/01/13 07:33:48;;;;;;;23.05;5.00;;;7.60;99.90;;;6.80;100.00;101506.81;4151030;28;20059;-77
2023/01/13 07:35:57;;;;;;;23.25;5.40;;;7.60;99.90;;;6.81;100.00;101503.25;4152162;28;20030;-78
2023/01/13 07:37:58;;;;;;;27.70;4.75;;;7.60;99.90;;;6.88;100.00;101509.72;4151087;28;20026;-78
2023/01/13 07:40:00;;;;;;;28.80;5.57;;;7.70;99.90;;;6.86;100.00;101506.38;4157833;28;20025;-78
2023/01/13 07:44:20;;;;;;;24.27;5.22;;;7.70;99.90;;;6.80;100.00;101502.41;4151156;28;20033;-78
2023/01/13 07:46:21;;;;;;;26.20;4.88;;;7.70;99.90;;;6.83;100.00;101501.34;4157944;28;20029;-78
2023/01/13 07:48:22;;;;;;;28.13;6.07;;;7.70;99.90;;;6.85;100.00;101502.06;4153668;28;20034;-78
2023/01/13 07:50:23;;;;;;;20.40;4.60;;;7.70;99.90;;;6.86;100.00;101509.84;4150836;28;20049;-78
2023/01/13 07:52:24;;;;;;;33.30;5.03;;;7.70;99.90;;;6.91;100.00;101520.81;4150842;28;20030;-78
2023/01/13 07:54:25;;;;;;;28.17;5.47;;;7.70;99.90;;;7.20;100.00;101516.00;4151942;28;20516;-78
2023/01/13 07:56:25;;;;;;;37.42;8.25;;;7.90;99.90;;;7.27;100.00;101522.47;4139660;28;20033;-78
2023/01/13 07:58:27;;;;;;;27.35;5.75;;;8.00;99.90;;;7.23;100.00;101514.00;4152241;28;20034;-78
2023/01/13 08:00:28;;;;;;;21.02;4.97;;;8.10;99.90;;;7.22;100.00;101524.63;4150647;28;20442;-78
2023/01/13 08:02:29;;;;;;;23.05;5.45;;;8.10;99.90;;;7.21;100.00;101522.94;4150773;28;20056;-78
2023/01/13 08:04:30;;;;;;;24.17;4.25;;;8.10;99.90;;;7.21;100.00;101528.19;4150624;28;20061;-78
2023/01/13 08:06:31;;;;;;;31.45;5.50;;;8.10;99.90;;;7.24;100.00;101522.69;4151883;28;20034;-78
2023/01/13 08:08:32;;;;;;;26.40;7.53;;;8.10;99.90;;;7.20;100.00;101526.50;4151926;28;20397;-78
2023/01/13 08:10:33;;;;;;;28.08;5.15;;;8.10;99.90;;;7.29;100.00;101540.75;4153223;28;20053;-78
2023/01/13 08:14:53;;;;;;;29.48;5.47;;;8.20;99.90;;;7.29;100.00;101540.75;4153720;28;20096;-78
2023/01/13 08:16:54;;;;;;;16.45;3.85;;;8.20;99.90;;;7.29;100.00;101536.31;4155935;28;20041;-78
2023/01/13 08:18:57;;;;;;;30.08;4.97;;;8.20;99.90;;;7.24;100.00;101534.03;4153592;28;20025;-78
2023/01/13 08:21:03;;;;;;;35.13;5.85;;;8.10;99.90;;;7.32;100.00;101536.06;4154762;28;20041;-78
2023/01/13 08:23:04;;;;;;;25.58;5.07;;;8.20;99.90;;;7.34;100.00;101535.97;4137258;28;20030;-78
2023/01/13 08:25:06;;;;;;;29.30;5.75;;;8.20;99.90;;;7.34;100.00;101543.84;4155216;28;20028;-78
2023/01/13 08:27:07;;;;;;;34.40;5.28;;;8.20;99.90;;;7.35;100.00;101537.66;4165153;28;20108;-78
2023/01/13 08:29:07;;;;;;;21.67;4.82;;;8.20;99.90;;;7.37;100.00;101541.84;4137833;28;20402;-78
2023/01/13 08:31:14;;;;;;;22.30;4.25;;;8.30;99.90;;;7.44;100.00;101550.91;4153209;28;20030;-78
2023/01/13 08:33:16;;;;;;;25.92;6.10;;;8.30;99.90;;;7.56;100.00;101554.38;4153329;28;20030;-78
2023/01/13 08:35:17;;;;;;;18.73;4.55;;;8.40;99.90;;;7.68;100.00;101554.28;4153264;28;20453;-77
2023/01/13 08:37:18;;;;;;;26.85;5.20;;;8.50;99.90;;;7.82;100.00;101568.16;4163034;28;20037;-78
2023/01/13 08:39:19;;;;;;;27.60;4.97;;;8.70;99.90;;;7.92;100.00;101571.72;4154492;28;20026;-78
2023/01/13 08:41:53;;;;;;;31.67;6.32;;;8.80;99.90;;;8.01;100.00;101581.53;4154365;28;20037;-78
2023/01/13 08:43:41;;;;;;;32.55;5.65;;;8.80;99.90;;;8.14;100.00;101582.25;4153033;28;20080;-78
2023/01/13 08:45:41;;;;;;;33.38;5.53;;;9.00;99.90;;;8.23;100.00;101581.53;4154114;28;20034;-77
2023/01/13 08:47:42;;;;;;;27.20;4.93;;;9.00;99.90;;;8.29;100.00;101586.34;4160800;28;20029;-78
2023/01/13 08:49:43;;;;;;;29.55;4.85;;;9.10;99.90;;;8.41;100.00;101587.16;4153096;28;20064;-77
2023/01/13 08:51:45;;;;;;;22.73;4.85;;;9.20;99.90;;;8.40;100.00;101590.75;4152835;28;20074;-77
2023/01/13 08:53:45;;;;;;;26.65;5.20;;;9.30;99.90;;;8.48;100.00;101601.50;4153344;28;20022;-78
2023/01/13 08:55:46;;;;;;;31.60;5.90;;;9.30;99.90;;;8.45;100.00;101597.34;4154475;28;20053;-77
2023/01/13 08:57:47;;;;;;;36.63;7.25;;;9.30;99.90;;;8.53;100.00;101599.34;4141709;28;20035;-77
2023/01/13 08:59:48;;;;;;;27.30;6.38;;;9.40;99.90;;;8.59;100.00;101610.22;4153745;28;20026;-77
2023/01/13 09:01:49;;;;;;;24.95;6.47;;;9.40;99.90;;;8.63;100.00;101616.06;4154264;28;20037;-78
2023/01/13 09:03:50;;;;;;;23.13;6.35;;;9.50;99.90;;;8.66;100.00;101611.38;4154081;28;20025;-78
2023/01/13 09:05:51;;;;;;;26.35;5.78;;;9.50;99.90;;;8.72;100.00;101612.72;4152821;28;20105;-77
2023/01/13 09:07:52;;;;;;;27.83;5.78;;;9.60;99.90;;;8.79;100.00;101619.97;4152795;28;20087;-78
2023/01/13 09:09:55;;;;;;;15.38;4.90;;;9.60;99.90;;;8.84;100.00;101614.34;4152867;28;20104;-78
2023/01/13 09:14:20;;;;;;;23.33;5.18;;;9.70;99.90;;;8.96;100.00;101610.72;4154020;28;20033;-78
2023/01/13 09:16:21;;;;;;;22.35;6.10;;;9.80;99.90;;;9.07;100.00;101617.75;4153232;28;20018;-78
2023/01/13 09:18:22;;;;;;;25.25;6.35;;;9.90;99.90;;;9.15;100.00;101620.59;4153869;28;20030;-78
2023/01/13 09:20:23;;;;;;;28.33;7.35;;;10.00;99.90;;;9.31;100.00;101621.00;4153807;28;20429;-77